createdAt,value
2018-12-07T00:01:32.796Z,11.70
2018-12-07T00:04:01.223Z,11.80
2018-12-07T00:06:29.526Z,11.70
2018-12-07T00:08:57.932Z,11.70
2018-12-07T00:11:26.257Z,11.70
2018-12-07T00:13:54.542Z,11.70
2018-12-07T00:16:22.918Z,11.70
2018-12-07T00:18:51.302Z,11.60
2018-12-07T00:21:19.729Z,11.60
2018-12-07T00:23:48.011Z,11.60
2018-12-07T00:26:16.428Z,11.60
2018-12-07T00:28:44.701Z,11.60
2018-12-07T00:31:12.991Z,11.50
2018-12-07T00:33:41.259Z,11.50
2018-12-07T00:36:09.527Z,11.50
2018-12-07T00:38:37.794Z,11.50
2018-12-07T00:41:06.087Z,11.50
2018-12-07T00:43:34.389Z,11.50
2018-12-07T00:46:02.690Z,11.50
2018-12-07T00:48:30.990Z,11.50
2018-12-07T00:50:59.338Z,11.50
2018-12-07T00:53:27.810Z,11.50
2018-12-07T00:55:56.275Z,11.50
2018-12-07T00:58:24.575Z,11.50
2018-12-07T01:00:52.890Z,11.60
2018-12-07T01:03:21.221Z,11.50
2018-12-07T01:05:49.501Z,11.50
2018-12-07T01:08:17.829Z,11.50
2018-12-07T01:10:46.137Z,11.50
2018-12-07T01:13:14.411Z,11.50
2018-12-07T01:15:42.707Z,11.50
2018-12-07T01:18:10.989Z,11.40
2018-12-07T01:20:39.303Z,11.50
2018-12-07T01:23:07.623Z,11.50
2018-12-07T01:25:35.875Z,11.40
2018-12-07T01:28:04.132Z,11.50
2018-12-07T01:30:32.430Z,11.50
2018-12-07T01:33:00.718Z,11.50
2018-12-07T01:35:35.577Z,11.40
2018-12-07T01:38:03.829Z,11.40
2018-12-07T01:40:32.109Z,11.40
2018-12-07T01:43:00.386Z,11.40
2018-12-07T01:45:28.671Z,11.50
2018-12-07T01:47:57.005Z,11.40
2018-12-07T01:50:25.287Z,11.40
2018-12-07T01:52:53.601Z,11.40
2018-12-07T01:55:21.868Z,11.50
2018-12-07T01:57:50.182Z,11.40
2018-12-07T02:00:18.598Z,11.40
2018-12-07T02:02:46.905Z,11.40
2018-12-07T02:05:15.195Z,11.40
2018-12-07T02:07:43.514Z,11.40
2018-12-07T02:10:11.928Z,11.40
2018-12-07T02:12:40.189Z,11.40
2018-12-07T02:15:08.463Z,11.40
2018-12-07T02:17:36.708Z,11.40
2018-12-07T02:20:05.394Z,11.40
2018-12-07T02:22:33.652Z,11.40
2018-12-07T02:25:01.908Z,11.40
2018-12-07T02:27:34.492Z,11.40
2018-12-07T02:30:02.893Z,11.40
2018-12-07T02:32:31.182Z,11.30
2018-12-07T02:34:59.466Z,11.40
2018-12-07T02:37:27.758Z,11.30
2018-12-07T02:39:56.031Z,11.30
2018-12-07T02:42:24.365Z,11.40
2018-12-07T02:44:52.710Z,11.40
2018-12-07T02:47:20.930Z,11.40
2018-12-07T02:49:52.209Z,11.40
2018-12-07T02:52:20.542Z,11.40
2018-12-07T02:54:48.870Z,11.40
2018-12-07T02:57:17.259Z,11.40
2018-12-07T02:59:45.537Z,11.40
2018-12-07T03:02:13.961Z,11.40
2018-12-07T03:04:42.263Z,11.40
2018-12-07T03:07:10.525Z,11.50
2018-12-07T03:09:38.905Z,11.50
2018-12-07T03:12:07.265Z,11.40
2018-12-07T03:14:35.564Z,11.40
2018-12-07T03:17:03.910Z,11.50
2018-12-07T03:19:32.139Z,11.40
2018-12-07T03:22:00.485Z,11.40
2018-12-07T03:24:28.861Z,11.40
2018-12-07T03:26:57.145Z,11.40
2018-12-07T03:29:25.445Z,11.40
2018-12-07T03:31:53.854Z,11.40
2018-12-07T03:34:22.206Z,11.40
2018-12-07T03:36:50.628Z,11.50
2018-12-07T03:39:19.030Z,11.40
2018-12-07T03:41:47.318Z,11.40
2018-12-07T03:44:15.591Z,11.40
2018-12-07T03:46:43.895Z,11.40
2018-12-07T03:49:12.282Z,11.40
2018-12-07T03:51:40.618Z,11.40
2018-12-07T03:54:10.760Z,11.40
2018-12-07T03:56:39.129Z,11.40
2018-12-07T03:59:07.435Z,11.40
2018-12-07T04:01:35.778Z,11.40
2018-12-07T04:04:04.156Z,11.40
2018-12-07T04:06:32.485Z,11.40
2018-12-07T04:09:01.049Z,11.40
2018-12-07T04:11:29.375Z,11.40
2018-12-07T04:13:57.776Z,11.40
2018-12-07T04:16:26.194Z,11.40
2018-12-07T04:18:54.918Z,11.40
2018-12-07T04:21:23.211Z,11.40
2018-12-07T04:23:51.504Z,11.40
2018-12-07T04:26:19.766Z,11.40
2018-12-07T04:28:48.060Z,11.40
2018-12-07T04:31:16.322Z,11.40
2018-12-07T04:33:44.621Z,11.40
2018-12-07T04:36:12.914Z,11.40
2018-12-07T04:38:41.191Z,11.40
2018-12-07T04:41:09.589Z,11.50
2018-12-07T04:43:37.843Z,11.40
2018-12-07T04:46:06.164Z,11.50
2018-12-07T04:48:34.485Z,11.40
2018-12-07T04:51:02.775Z,11.40
2018-12-07T04:53:31.160Z,11.40
2018-12-07T04:56:00.463Z,11.40
2018-12-07T04:58:28.791Z,11.40
2018-12-07T05:00:57.055Z,11.50
2018-12-07T05:03:25.340Z,11.50
2018-12-07T05:05:53.644Z,11.50
2018-12-07T05:08:22.030Z,11.50
2018-12-07T05:10:50.295Z,11.50
2018-12-07T05:13:18.572Z,11.50
2018-12-07T05:15:46.868Z,11.40
2018-12-07T05:18:15.121Z,11.40
2018-12-07T05:20:43.393Z,11.40
2018-12-07T05:23:11.779Z,11.40
2018-12-07T05:25:40.088Z,11.50
2018-12-07T05:28:08.320Z,11.40
2018-12-07T05:30:36.636Z,11.50
2018-12-07T05:33:04.879Z,11.50
2018-12-07T05:35:33.158Z,11.50
2018-12-07T05:38:01.480Z,11.50
2018-12-07T05:40:29.913Z,11.50
2018-12-07T05:42:58.301Z,11.50
2018-12-07T05:45:26.920Z,11.50
2018-12-07T05:47:55.237Z,11.50
2018-12-07T05:50:23.546Z,11.50
2018-12-07T05:52:51.817Z,11.50
2018-12-07T05:55:20.101Z,11.50
2018-12-07T05:57:48.399Z,11.50
2018-12-07T06:00:16.787Z,11.50
2018-12-07T06:02:45.142Z,11.50
2018-12-07T06:05:13.403Z,11.50
2018-12-07T06:07:41.681Z,11.50
2018-12-07T06:10:09.965Z,11.50
2018-12-07T06:12:38.208Z,11.50
2018-12-07T06:15:06.733Z,11.50
2018-12-07T06:17:34.993Z,11.50
2018-12-07T06:20:03.287Z,11.60
2018-12-07T06:22:31.565Z,11.60
2018-12-07T06:24:59.881Z,11.60
2018-12-07T06:27:28.137Z,11.60
2018-12-07T06:29:56.374Z,11.60
2018-12-07T06:32:24.738Z,11.60
2018-12-07T06:34:53.018Z,11.60
2018-12-07T06:37:21.332Z,11.60
2018-12-07T06:39:49.582Z,11.60
2018-12-07T06:42:17.955Z,11.50
2018-12-07T06:44:46.212Z,11.50
2018-12-07T06:47:14.508Z,11.50
2018-12-07T06:49:42.831Z,11.50
2018-12-07T06:52:11.126Z,11.50
2018-12-07T06:54:39.390Z,11.50
2018-12-07T06:57:07.619Z,11.50
2018-12-07T06:59:35.884Z,11.50
2018-12-07T07:02:04.201Z,11.50
2018-12-07T07:04:32.441Z,11.50
2018-12-07T07:07:00.699Z,11.50
2018-12-07T07:09:29.015Z,11.50
2018-12-07T07:11:57.383Z,11.50
2018-12-07T07:14:25.677Z,11.50
2018-12-07T07:16:54.040Z,11.50
2018-12-07T07:19:22.325Z,11.50
2018-12-07T07:21:50.647Z,11.50
2018-12-07T07:24:19.115Z,11.50
2018-12-07T07:26:47.434Z,11.50
2018-12-07T07:29:15.749Z,11.50
2018-12-07T07:31:44.239Z,11.50
2018-12-07T07:34:12.660Z,11.50
2018-12-07T07:36:40.954Z,11.50
2018-12-07T07:39:09.282Z,11.50
2018-12-07T07:41:37.641Z,11.50
2018-12-07T07:44:05.925Z,11.50
2018-12-07T07:46:34.199Z,11.40
2018-12-07T07:49:02.510Z,11.40
2018-12-07T07:51:30.772Z,11.50
2018-12-07T07:53:59.236Z,11.40
2018-12-07T07:56:27.571Z,11.50
2018-12-07T07:58:55.922Z,11.40
2018-12-07T08:01:24.225Z,11.50
2018-12-07T08:03:52.787Z,11.50
2018-12-07T08:06:21.295Z,11.50
2018-12-07T08:08:49.629Z,11.50
2018-12-07T08:11:18.015Z,11.50
2018-12-07T08:13:46.368Z,11.60
2018-12-07T08:16:14.751Z,11.60
2018-12-07T08:18:43.038Z,11.60
2018-12-07T08:21:11.380Z,11.60
2018-12-07T08:23:39.700Z,11.60
2018-12-07T08:26:08.054Z,11.50
2018-12-07T08:28:36.392Z,11.50
2018-12-07T08:31:04.819Z,11.50
2018-12-07T08:33:33.115Z,11.50
2018-12-07T08:36:02.523Z,11.50
2018-12-07T08:38:30.917Z,11.50
2018-12-07T08:41:02.527Z,11.50
2018-12-07T08:43:33.775Z,11.50
2018-12-07T08:46:02.036Z,11.60
2018-12-07T08:48:30.344Z,11.50
2018-12-07T08:50:58.590Z,11.50
2018-12-07T08:53:26.875Z,11.50
2018-12-07T08:55:55.172Z,11.50
2018-12-07T08:58:23.475Z,11.50
2018-12-07T09:00:51.850Z,11.50
2018-12-07T09:03:20.135Z,11.50
2018-12-07T09:05:48.436Z,11.50
2018-12-07T09:08:16.721Z,11.50
2018-12-07T09:10:45.037Z,11.50
2018-12-07T09:13:13.236Z,11.50
2018-12-07T09:15:41.488Z,11.50
2018-12-07T09:18:09.788Z,11.50
2018-12-07T09:20:38.029Z,11.50
2018-12-07T09:23:06.316Z,11.50
2018-12-07T09:25:34.653Z,11.50
2018-12-07T09:28:09.450Z,11.50
2018-12-07T09:30:37.771Z,11.50
2018-12-07T09:33:06.040Z,11.40
2018-12-07T09:35:34.573Z,11.50
2018-12-07T09:38:02.901Z,11.40
2018-12-07T09:40:31.161Z,11.40
2018-12-07T09:42:59.445Z,11.40
2018-12-07T09:45:27.724Z,11.40
2018-12-07T09:47:56.039Z,11.40
2018-12-07T09:50:24.340Z,11.40
2018-12-07T09:52:52.702Z,11.40
2018-12-07T09:55:20.997Z,11.40
2018-12-07T09:57:49.265Z,11.40
2018-12-07T10:00:17.568Z,11.40
2018-12-07T10:02:45.857Z,11.40
2018-12-07T10:05:14.106Z,11.40
2018-12-07T10:07:42.393Z,11.40
2018-12-07T10:10:10.656Z,11.40
2018-12-07T10:12:38.918Z,11.40
2018-12-07T10:15:07.187Z,11.40
2018-12-07T10:17:35.505Z,11.50
2018-12-07T10:20:03.826Z,11.50
2018-12-07T10:22:32.911Z,11.50
2018-12-07T10:25:01.236Z,11.50
2018-12-07T10:27:29.489Z,11.50
2018-12-07T10:29:57.892Z,11.50
2018-12-07T10:32:26.186Z,11.50
2018-12-07T10:34:54.490Z,11.50
2018-12-07T10:37:22.797Z,11.40
2018-12-07T10:39:51.063Z,11.40
2018-12-07T10:42:19.338Z,11.40
2018-12-07T10:44:47.666Z,11.40
2018-12-07T10:47:15.936Z,11.40
2018-12-07T10:49:44.197Z,11.40
2018-12-07T10:52:12.499Z,11.40
2018-12-07T10:54:40.954Z,11.40
2018-12-07T10:57:09.380Z,11.50
2018-12-07T10:59:37.662Z,11.50
2018-12-07T11:03:14.152Z,11.50
2018-12-07T11:05:47.572Z,11.50
2018-12-07T11:08:21.399Z,11.50
2018-12-07T11:10:56.424Z,11.50
2018-12-07T11:13:30.175Z,11.60
2018-12-07T11:16:03.960Z,11.60
2018-12-07T11:18:37.709Z,11.60
2018-12-07T11:21:11.353Z,11.60
2018-12-07T11:23:45.084Z,11.60
2018-12-07T11:26:18.829Z,11.60
2018-12-07T11:29:50.281Z,11.60
2018-12-07T11:32:24.705Z,11.60
2018-12-07T11:34:57.696Z,11.60
2018-12-07T11:37:26.019Z,11.60
2018-12-07T11:39:54.309Z,11.60
2018-12-07T11:42:22.624Z,11.60
2018-12-07T11:44:50.981Z,11.60
2018-12-07T11:47:19.260Z,11.60
2018-12-07T11:49:47.562Z,11.60
2018-12-07T11:52:15.989Z,11.60
2018-12-07T11:54:44.285Z,11.60
2018-12-07T11:57:12.646Z,11.60
2018-12-07T11:59:41.026Z,11.60
2018-12-07T12:02:09.311Z,11.60
2018-12-07T12:04:37.635Z,11.60
2018-12-07T12:07:05.981Z,11.70
2018-12-07T12:09:34.338Z,11.70
2018-12-07T12:12:02.603Z,11.70
2018-12-07T12:14:30.939Z,11.80
2018-12-07T12:16:59.284Z,11.80
2018-12-07T12:19:27.565Z,11.80
2018-12-07T12:21:55.868Z,11.80
2018-12-07T12:24:24.209Z,11.80
2018-12-07T12:26:52.479Z,11.80
2018-12-07T12:29:20.859Z,11.90
2018-12-07T12:31:49.324Z,11.90
2018-12-07T12:34:17.619Z,11.80
2018-12-07T12:36:45.923Z,11.90
2018-12-07T12:39:14.265Z,11.90
2018-12-07T12:41:46.720Z,11.90
2018-12-07T12:44:12.890Z,11.90
2018-12-07T12:46:41.245Z,11.90
2018-12-07T12:49:09.607Z,11.90
2018-12-07T12:51:37.938Z,11.90
2018-12-07T12:54:06.339Z,11.90
2018-12-07T12:56:34.640Z,11.90
2018-12-07T12:59:02.952Z,11.90
2018-12-07T13:01:31.200Z,11.90
2018-12-07T13:03:59.497Z,12.00
2018-12-07T13:06:27.762Z,11.90
2018-12-07T13:08:56.027Z,11.90
2018-12-07T13:11:24.358Z,12.00
2018-12-07T13:13:52.698Z,11.90
2018-12-07T13:16:20.974Z,11.90
2018-12-07T13:18:49.253Z,12.00
2018-12-07T13:21:17.502Z,12.00
2018-12-07T13:23:45.764Z,12.10
2018-12-07T13:26:14.115Z,12.10
2018-12-07T13:28:42.471Z,12.10
2018-12-07T13:31:10.739Z,12.10
2018-12-07T13:33:39.058Z,12.10
2018-12-07T13:36:07.639Z,12.10
2018-12-07T13:38:35.934Z,12.10
2018-12-07T13:41:04.267Z,12.10
2018-12-07T13:43:32.560Z,12.10
2018-12-07T13:46:00.968Z,12.10
2018-12-07T13:48:29.392Z,12.10
2018-12-07T13:50:58.066Z,12.10
2018-12-07T13:53:26.490Z,12.10
2018-12-07T13:55:54.978Z,12.10
2018-12-07T13:58:23.272Z,12.10
2018-12-07T14:00:51.805Z,12.10
2018-12-07T14:03:20.426Z,12.10
2018-12-07T14:05:48.790Z,12.10
2018-12-07T14:08:18.794Z,12.10
2018-12-07T14:10:47.399Z,12.10
2018-12-07T14:13:15.936Z,12.10
2018-12-07T14:15:44.279Z,12.10
2018-12-07T14:18:13.013Z,12.00
2018-12-07T14:20:41.409Z,12.00
2018-12-07T14:23:09.813Z,11.90
2018-12-07T14:25:38.389Z,11.90
2018-12-07T14:28:06.836Z,11.80
2018-12-07T14:30:36.021Z,11.70
2018-12-07T14:33:04.756Z,11.60
2018-12-07T14:35:33.225Z,11.50
2018-12-07T14:38:02.642Z,11.50
2018-12-07T14:40:31.041Z,11.50
2018-12-07T14:42:59.625Z,11.40
2018-12-07T14:45:28.154Z,11.40
2018-12-07T14:47:56.622Z,11.40
2018-12-07T14:50:25.031Z,11.30
2018-12-07T14:52:53.606Z,11.30
2018-12-07T14:55:22.063Z,11.30
2018-12-07T14:57:50.487Z,11.30
2018-12-07T15:00:19.000Z,11.20
2018-12-07T15:02:47.732Z,11.20
2018-12-07T15:05:16.127Z,11.20
2018-12-07T15:07:44.650Z,11.20
2018-12-07T15:10:13.126Z,11.20
2018-12-07T15:12:41.686Z,11.30
2018-12-07T15:15:10.181Z,11.30
2018-12-07T15:17:38.645Z,11.40
2018-12-07T15:20:08.108Z,11.40
2018-12-07T15:22:36.618Z,11.40
2018-12-07T15:25:06.307Z,11.40
2018-12-07T15:27:34.959Z,11.40
2018-12-07T15:30:03.750Z,11.40
2018-12-07T15:32:32.447Z,11.40
2018-12-07T15:35:00.918Z,11.40
2018-12-07T15:37:29.404Z,11.40
2018-12-07T15:39:57.928Z,11.40
2018-12-07T15:42:26.335Z,11.40
2018-12-07T15:44:54.872Z,11.40
2018-12-07T15:47:23.400Z,11.40
2018-12-07T15:49:51.982Z,11.50
2018-12-07T15:52:20.606Z,11.40
2018-12-07T15:54:49.091Z,11.40
2018-12-07T15:57:17.698Z,11.40
2018-12-07T15:59:46.357Z,11.40
2018-12-07T16:02:15.045Z,11.40
2018-12-07T16:04:43.688Z,11.40
2018-12-07T16:07:12.276Z,11.40
2018-12-07T16:09:40.971Z,11.40
2018-12-07T16:12:09.792Z,11.30
2018-12-07T16:14:38.468Z,11.30
2018-12-07T16:17:06.992Z,11.30
2018-12-07T16:19:35.595Z,11.20
2018-12-07T16:22:04.140Z,11.20
2018-12-07T16:24:32.694Z,11.20
2018-12-07T16:27:01.166Z,11.10
2018-12-07T16:29:29.677Z,11.10
2018-12-07T16:31:58.223Z,11.00
2018-12-07T16:34:26.673Z,11.00
2018-12-07T16:36:55.100Z,11.00
2018-12-07T16:39:23.528Z,11.00
2018-12-07T16:41:52.018Z,10.90
2018-12-07T16:44:20.422Z,10.90
2018-12-07T16:46:48.957Z,10.90
2018-12-07T16:49:17.400Z,10.90
2018-12-07T16:51:45.919Z,10.80
2018-12-07T16:54:14.645Z,10.90
2018-12-07T16:56:43.480Z,10.80
2018-12-07T16:59:11.853Z,10.80
2018-12-07T17:01:40.304Z,10.80
2018-12-07T17:04:08.791Z,10.80
2018-12-07T17:06:37.359Z,10.80
2018-12-07T17:09:07.475Z,10.70
2018-12-07T17:11:36.170Z,10.80
2018-12-07T17:14:04.736Z,10.70
2018-12-07T17:16:33.325Z,10.70
2018-12-07T17:19:01.964Z,10.70
2018-12-07T17:21:30.512Z,10.70
2018-12-07T17:23:59.184Z,10.70
2018-12-07T17:26:27.751Z,10.60
2018-12-07T17:28:56.092Z,10.70
2018-12-07T17:31:24.700Z,10.70
2018-12-07T17:33:53.396Z,10.70
2018-12-07T17:36:21.852Z,10.70
2018-12-07T17:38:50.309Z,10.60
2018-12-07T17:41:18.645Z,10.60
2018-12-07T17:43:47.207Z,10.60
2018-12-07T17:46:15.797Z,10.60
2018-12-07T17:48:44.363Z,10.50
2018-12-07T17:51:12.949Z,10.50
2018-12-07T17:53:41.391Z,10.50
2018-12-07T17:56:10.280Z,10.50
2018-12-07T17:58:38.694Z,10.50
2018-12-07T18:01:07.015Z,10.50
2018-12-07T18:03:35.306Z,10.50
2018-12-07T18:06:03.754Z,10.40
2018-12-07T18:08:32.359Z,10.50
2018-12-07T18:11:00.892Z,10.50
2018-12-07T18:13:29.439Z,10.50
2018-12-07T18:15:57.880Z,10.50
2018-12-07T18:18:26.313Z,10.50
2018-12-07T18:20:54.800Z,10.40
2018-12-07T18:23:23.214Z,10.40
2018-12-07T18:25:51.622Z,10.30
2018-12-07T18:28:20.250Z,10.10
2018-12-07T18:30:48.697Z,9.90
2018-12-07T18:33:17.139Z,9.70
2018-12-07T18:35:45.487Z,9.60
2018-12-07T18:38:13.968Z,9.40
2018-12-07T18:40:42.384Z,9.30
2018-12-07T18:43:11.052Z,9.20
2018-12-07T18:45:39.474Z,9.10
2018-12-07T18:48:08.214Z,8.90
2018-12-07T18:50:36.883Z,8.70
2018-12-07T18:53:05.194Z,8.70
2018-12-07T18:55:33.622Z,8.60
2018-12-07T18:58:02.216Z,8.60
2018-12-07T19:00:30.697Z,8.50
2018-12-07T19:02:59.249Z,8.50
2018-12-07T19:05:27.896Z,8.40
2018-12-07T19:07:56.176Z,8.30
2018-12-07T19:10:24.803Z,8.30
2018-12-07T19:12:53.446Z,8.20
2018-12-07T19:15:22.143Z,8.20
2018-12-07T19:17:50.626Z,8.20
2018-12-07T19:20:18.924Z,8.10
2018-12-07T19:22:47.191Z,8.10
2018-12-07T19:25:15.606Z,8.10
2018-12-07T19:27:43.975Z,8.00
2018-12-07T19:30:14.755Z,8.00
2018-12-07T19:32:42.581Z,7.90
2018-12-07T19:35:10.916Z,7.90
2018-12-07T19:37:39.529Z,7.90
2018-12-07T19:40:08.143Z,7.90
2018-12-07T19:42:36.479Z,7.90
2018-12-07T19:45:05.492Z,7.80
2018-12-07T19:47:33.889Z,7.90
2018-12-07T19:50:03.615Z,7.90
2018-12-07T19:52:32.620Z,7.90
2018-12-07T19:55:01.293Z,7.90
2018-12-07T19:57:29.667Z,7.80
2018-12-07T19:59:57.936Z,7.90
2018-12-07T20:02:26.303Z,7.80
2018-12-07T20:04:54.846Z,7.80
2018-12-07T20:07:23.302Z,7.80
2018-12-07T20:09:51.618Z,7.80
2018-12-07T20:12:23.006Z,7.80
2018-12-07T20:14:51.604Z,7.80
2018-12-07T20:17:20.168Z,7.80
2018-12-07T20:19:48.977Z,7.80
2018-12-07T20:22:17.295Z,7.80
2018-12-07T20:24:45.677Z,7.80
2018-12-07T20:27:14.414Z,7.80
2018-12-07T20:29:42.952Z,7.80
2018-12-07T20:32:11.252Z,7.80
2018-12-07T20:34:39.713Z,7.70
2018-12-07T20:37:08.298Z,7.70
2018-12-07T20:39:36.725Z,7.70
2018-12-07T20:42:05.376Z,7.80
2018-12-07T20:44:33.833Z,7.70
2018-12-07T20:47:02.505Z,7.60
2018-12-07T20:49:31.090Z,7.30
2018-12-07T20:52:01.114Z,7.20
2018-12-07T20:54:29.698Z,7.20
2018-12-07T20:56:58.254Z,7.30
2018-12-07T20:59:26.682Z,7.30
2018-12-07T21:01:55.103Z,7.40
2018-12-07T21:04:33.389Z,7.40
2018-12-07T21:07:21.136Z,7.50
2018-12-07T21:10:57.862Z,7.50
2018-12-07T21:13:38.903Z,7.50
2018-12-07T21:16:31.673Z,7.50
2018-12-07T21:19:00.404Z,7.50
2018-12-07T21:21:28.996Z,7.60
2018-12-07T21:23:58.934Z,7.60
2018-12-07T21:26:27.283Z,7.60
2018-12-07T21:28:58.987Z,7.60
2018-12-07T21:31:29.615Z,7.60
2018-12-07T21:34:14.035Z,7.60
2018-12-07T21:36:47.114Z,7.60
2018-12-07T21:39:37.040Z,7.50
2018-12-07T21:42:05.921Z,7.50
2018-12-07T21:44:34.610Z,7.40
2018-12-07T21:47:03.392Z,7.40
2018-12-07T21:49:35.999Z,7.40
2018-12-07T21:52:12.361Z,7.40
2018-12-07T21:54:41.750Z,7.30
2018-12-07T21:57:10.166Z,7.30
2018-12-07T21:59:38.649Z,7.30
2018-12-07T22:02:07.298Z,7.40
2018-12-07T22:04:36.046Z,7.30
2018-12-07T22:07:05.030Z,7.30
2018-12-07T22:09:33.775Z,7.40
2018-12-07T22:12:02.722Z,7.30
2018-12-07T22:14:31.512Z,7.20
2018-12-07T22:17:00.292Z,7.20
2018-12-07T22:19:28.847Z,7.20
2018-12-07T22:21:57.365Z,7.20
2018-12-07T22:24:26.209Z,7.20
2018-12-07T22:26:54.775Z,7.10
2018-12-07T22:29:23.456Z,7.10
2018-12-07T22:31:52.055Z,7.10
2018-12-07T22:34:20.904Z,7.10
2018-12-07T22:36:49.429Z,7.10
2018-12-07T22:39:17.916Z,7.00
2018-12-07T22:41:46.596Z,7.00
2018-12-07T22:44:15.028Z,7.00
2018-12-07T22:46:43.545Z,7.10
2018-12-07T22:49:12.044Z,7.10
2018-12-07T22:51:40.523Z,7.10
2018-12-07T22:54:08.885Z,7.10
2018-12-07T22:56:37.413Z,7.10
2018-12-07T22:59:06.256Z,7.00
2018-12-07T23:01:41.348Z,7.00
2018-12-07T23:04:09.878Z,7.00
2018-12-07T23:06:38.364Z,7.00
2018-12-07T23:09:07.514Z,7.00
2018-12-07T23:11:35.904Z,7.00
2018-12-07T23:14:04.233Z,6.90
2018-12-07T23:16:32.657Z,6.90
2018-12-07T23:19:01.020Z,6.90
2018-12-07T23:21:29.403Z,6.90
2018-12-07T23:23:57.745Z,6.90
2018-12-07T23:26:26.046Z,6.90
2018-12-07T23:28:54.420Z,6.90
2018-12-07T23:31:22.941Z,6.90
2018-12-07T23:33:51.307Z,6.90
2018-12-07T23:36:19.675Z,6.90
2018-12-07T23:38:48.023Z,6.90
2018-12-07T23:41:16.374Z,6.90
2018-12-07T23:43:44.693Z,6.90
2018-12-07T23:46:13.006Z,6.90
2018-12-07T23:48:41.359Z,6.90
2018-12-07T23:51:09.708Z,6.90
2018-12-07T23:53:39.119Z,6.90
2018-12-07T23:56:07.455Z,6.80
2018-12-07T23:58:35.730Z,6.80
